createdAt,value
2019-06-27T00:01:04.995Z,1017.06
2019-06-27T00:02:13.399Z,1017.09
2019-06-27T00:03:05.119Z,1017.08
2019-06-27T00:04:14.333Z,1017.10
2019-06-27T00:05:27.145Z,1017.06
2019-06-27T00:06:26.532Z,1017.06
2019-06-27T00:07:31.354Z,1017.05
2019-06-27T00:08:41.811Z,1017.02
2019-06-27T00:09:39.761Z,1017.08
2019-06-27T00:10:52.979Z,1017.03
2019-06-27T00:11:58.005Z,1017.07
2019-06-27T00:12:58.932Z,1017.07
2019-06-27T00:14:05.185Z,1017.07
2019-06-27T00:15:17.587Z,1017.08
2019-06-27T00:16:26.806Z,1017.10
2019-06-27T00:17:20.572Z,1017.09
2019-06-27T00:18:34.297Z,1017.13
2019-06-27T00:19:30.306Z,1017.16
2019-06-27T00:20:32.978Z,1017.18
2019-06-27T00:21:43.430Z,1017.17
2019-06-27T00:22:48.452Z,1017.21
2019-06-27T00:24:02.900Z,1017.18
2019-06-27T00:25:04.748Z,1017.20
2019-06-27T00:26:12.233Z,1017.18
2019-06-27T00:27:07.936Z,1017.19
2019-06-27T00:28:10.503Z,1017.21
2019-06-27T00:29:14.402Z,1017.20
2019-06-27T00:30:31.002Z,1017.23
2019-06-27T00:31:26.707Z,1017.21
2019-06-27T00:32:39.203Z,1017.25
2019-06-27T00:33:44.360Z,1017.22
2019-06-27T00:34:58.061Z,1017.22
2019-06-27T00:35:50.180Z,1017.21
2019-06-27T00:36:56.849Z,1017.24
2019-06-27T00:38:09.550Z,1017.21
2019-06-27T00:39:10.375Z,1017.25
2019-06-27T00:40:12.435Z,1017.22
2019-06-27T00:41:27.908Z,1017.26
2019-06-27T00:42:21.864Z,1017.28
2019-06-27T00:43:24.637Z,1017.30
2019-06-27T00:44:37.447Z,1017.29
2019-06-27T00:45:50.657Z,1017.28
2019-06-27T00:46:47.799Z,1017.31
2019-06-27T00:47:54.770Z,1017.35
2019-06-27T00:49:03.996Z,1017.37
2019-06-27T00:50:17.824Z,1017.35
2019-06-27T00:51:14.867Z,1017.38
2019-06-27T00:52:25.722Z,1017.38
2019-06-27T00:53:27.473Z,1017.38
2019-06-27T00:54:40.993Z,1017.33
2019-06-27T00:55:33.421Z,1017.32
2019-06-27T00:56:38.978Z,1017.30
2019-06-27T00:57:50.642Z,1017.34
2019-06-27T00:58:48.599Z,1017.36
2019-06-27T00:59:57.615Z,1017.33
2019-06-27T01:01:04.279Z,1017.31
2019-06-27T01:02:24.462Z,1017.31
2019-06-27T01:03:19.042Z,1017.29
2019-06-27T01:04:25.088Z,1017.28
2019-06-27T01:05:23.967Z,1017.30
2019-06-27T01:06:46.811Z,1017.28
2019-06-27T01:07:52.859Z,1017.28
2019-06-27T01:08:53.889Z,1017.27
2019-06-27T01:09:44.987Z,1017.31
2019-06-27T01:10:59.636Z,1017.31
2019-06-27T01:11:57.595Z,1017.29
2019-06-27T01:13:23.307Z,1017.32
2019-06-27T01:14:09.694Z,1017.33
2019-06-27T01:15:21.374Z,1017.29
2019-06-27T01:16:29.163Z,1017.34
2019-06-27T01:17:35.622Z,1017.30
2019-06-27T01:18:40.648Z,1017.30
2019-06-27T01:19:44.033Z,1017.35
2019-06-27T01:21:08.919Z,1017.32
2019-06-27T01:22:08.934Z,1017.34
2019-06-27T01:23:04.436Z,1017.34
2019-06-27T01:23:46.621Z,1017.32
2019-06-27T01:25:16.736Z,1017.31
2019-06-27T01:26:38.038Z,1017.25
2019-06-27T01:27:34.874Z,1017.26
2019-06-27T01:28:23.919Z,1017.24
2019-06-27T01:29:28.126Z,1017.26
2019-06-27T01:30:48.316Z,1017.24
2019-06-27T01:31:47.497Z,1017.24
2019-06-27T01:32:50.573Z,1017.21
2019-06-27T01:33:59.184Z,1017.18
2019-06-27T01:34:55.710Z,1017.22
2019-06-27T01:36:22.339Z,1017.25
2019-06-27T01:37:06.683Z,1017.23
2019-06-27T01:38:07.814Z,1017.20
2019-06-27T01:39:28.196Z,1017.22
2019-06-27T01:40:34.149Z,1017.19
2019-06-27T01:41:45.734Z,1017.19
2019-06-27T01:42:39.803Z,1017.19
2019-06-27T01:44:03.959Z,1017.22
2019-06-27T01:44:55.779Z,1017.25
2019-06-27T01:46:11.864Z,1017.22
2019-06-27T01:47:11.148Z,1017.20
2019-06-27T01:48:38.700Z,1017.24
2019-06-27T01:49:11.987Z,1017.21
2019-06-27T01:50:14.857Z,1017.23
2019-06-27T01:51:27.461Z,1017.26
2019-06-27T01:52:44.258Z,1017.23
2019-06-27T01:53:35.051Z,1017.25
2019-06-27T01:54:40.485Z,1017.30
2019-06-27T01:56:02.201Z,1017.28
2019-06-27T01:56:41.830Z,1017.27
2019-06-27T01:58:03.442Z,1017.23
2019-06-27T01:58:56.688Z,1017.28
2019-06-27T02:00:26.093Z,1017.24
2019-06-27T02:01:27.425Z,1017.27
2019-06-27T02:02:33.063Z,1017.23
2019-06-27T02:03:37.166Z,1017.24
2019-06-27T02:04:25.909Z,1017.25
2019-06-27T02:05:51.310Z,1017.22
2019-06-27T02:06:55.823Z,1017.25
2019-06-27T02:08:03.831Z,1017.21
2019-06-27T02:09:20.517Z,1017.23
2019-06-27T02:10:26.871Z,1017.25
2019-06-27T02:10:53.394Z,1017.27
2019-06-27T02:12:06.199Z,1017.30
2019-06-27T02:13:37.748Z,1017.34
2019-06-27T02:14:19.436Z,1017.31
2019-06-27T02:15:42.480Z,1017.30
2019-06-27T02:16:36.390Z,1017.33
2019-06-27T02:18:18.533Z,1017.38
2019-06-27T02:19:20.285Z,1017.33
2019-06-27T02:19:49.359Z,1017.36
2019-06-27T02:21:09.028Z,1017.39
2019-06-27T02:22:37.604Z,1017.41
2019-06-27T02:23:18.058Z,1017.38
2019-06-27T02:24:14.381Z,1017.44
2019-06-27T02:25:35.072Z,1017.41
2019-06-27T02:26:33.540Z,1017.42
2019-06-27T02:27:27.199Z,1017.35
2019-06-27T02:29:11.341Z,1017.41
2019-06-27T02:29:50.656Z,1017.36
2019-06-27T02:30:52.753Z,1017.34
2019-06-27T02:32:15.767Z,1017.39
2019-06-27T02:33:16.793Z,1017.40
2019-06-27T02:35:05.349Z,1017.43
2019-06-27T02:36:05.550Z,1017.44
2019-06-27T02:36:52.756Z,1017.41
2019-06-27T02:38:11.194Z,1017.44
2019-06-27T02:38:48.576Z,1017.47
2019-06-27T02:40:19.093Z,1017.48
2019-06-27T02:41:02.822Z,1017.46
2019-06-27T02:42:20.133Z,1017.54
2019-06-27T02:43:29.976Z,1017.50
2019-06-27T02:44:33.049Z,1017.51
2019-06-27T02:46:16.161Z,1017.49
2019-06-27T02:46:35.228Z,1017.51
2019-06-27T02:48:31.742Z,1017.51
2019-06-27T02:49:49.980Z,1017.53
2019-06-27T02:50:44.552Z,1017.58
2019-06-27T02:51:59.718Z,1017.59
2019-06-27T02:53:05.255Z,1017.62
2019-06-27T02:54:21.855Z,1017.60
2019-06-27T02:54:49.402Z,1017.60
2019-06-27T02:56:02.143Z,1017.59
2019-06-27T02:57:02.723Z,1017.58
2019-06-27T02:59:06.420Z,1017.60
2019-06-27T02:59:55.065Z,1017.61
2019-06-27T03:01:12.070Z,1017.61
2019-06-27T03:01:58.457Z,1017.60
2019-06-27T03:03:10.548Z,1017.57
2019-06-27T03:03:54.165Z,1017.59
2019-06-27T03:05:04.219Z,1017.65
2019-06-27T03:06:44.772Z,1017.65
2019-06-27T03:07:27.980Z,1017.62
2019-06-27T03:08:23.380Z,1017.63
2019-06-27T03:09:27.072Z,1017.61
2019-06-27T03:10:50.430Z,1017.66
2019-06-27T03:12:11.938Z,1017.64
2019-06-27T03:12:47.376Z,1017.68
2019-06-27T03:13:45.534Z,1017.69
2019-06-27T03:15:37.074Z,1017.69
2019-06-27T03:16:20.055Z,1017.70
2019-06-27T03:17:12.523Z,1017.71
2019-06-27T03:18:34.609Z,1017.71
2019-06-27T03:19:30.929Z,1017.73
2019-06-27T03:20:43.226Z,1017.75
2019-06-27T03:21:37.805Z,1017.75
2019-06-27T03:22:45.490Z,1017.73
2019-06-27T03:23:59.324Z,1017.73
2019-06-27T03:24:49.733Z,1017.70
2019-06-27T03:25:58.517Z,1017.73
2019-06-27T03:27:02.621Z,1017.73
2019-06-27T03:28:07.646Z,1017.66
2019-06-27T03:29:14.343Z,1017.62
2019-06-27T03:30:09.607Z,1017.62
2019-06-27T03:31:34.291Z,1017.60
2019-06-27T03:32:37.983Z,1017.59
2019-06-27T03:33:50.789Z,1017.57
2019-06-27T03:34:59.215Z,1017.57
2019-06-27T03:35:53.079Z,1017.58
2019-06-27T03:36:57.977Z,1017.58
2019-06-27T03:38:09.565Z,1017.58
2019-06-27T03:39:05.057Z,1017.64
2019-06-27T03:40:19.095Z,1017.66
2019-06-27T03:41:17.984Z,1017.64
2019-06-27T03:42:10.712Z,1017.66
2019-06-27T03:43:20.753Z,1017.67
2019-06-27T03:44:30.488Z,1017.68
2019-06-27T03:45:38.791Z,1017.68
2019-06-27T03:46:39.821Z,1017.71
2019-06-27T03:47:47.406Z,1017.70
2019-06-27T03:48:54.886Z,1017.77
2019-06-27T03:49:48.338Z,1017.75
2019-06-27T03:50:47.118Z,1017.74
2019-06-27T03:52:07.296Z,1017.73
2019-06-27T03:53:18.056Z,1017.73
2019-06-27T03:54:21.339Z,1017.76
2019-06-27T03:55:29.026Z,1017.75
2019-06-27T03:56:35.382Z,1017.75
2019-06-27T03:57:31.819Z,1017.75
2019-06-27T03:58:42.976Z,1017.76
2019-06-27T03:59:36.443Z,1017.78
2019-06-27T04:00:51.487Z,1017.78
2019-06-27T04:01:57.843Z,1017.77
2019-06-27T04:02:55.597Z,1017.81
2019-06-27T04:04:08.811Z,1017.79
2019-06-27T04:05:08.819Z,1017.83
2019-06-27T04:06:22.654Z,1017.84
2019-06-27T04:07:34.032Z,1017.81
2019-06-27T04:08:33.625Z,1017.83
2019-06-27T04:09:43.786Z,1017.76
2019-06-27T04:10:48.998Z,1017.77
2019-06-27T04:11:53.917Z,1017.77
2019-06-27T04:12:54.540Z,1017.73
2019-06-27T04:14:09.089Z,1017.73
2019-06-27T04:15:00.284Z,1017.72
2019-06-27T04:16:08.082Z,1017.75
2019-06-27T04:17:10.443Z,1017.77
2019-06-27T04:18:12.301Z,1017.76
2019-06-27T04:19:28.678Z,1017.75
2019-06-27T04:20:30.434Z,1017.75
2019-06-27T04:21:33.096Z,1017.74
2019-06-27T04:22:44.383Z,1017.71
2019-06-27T04:23:50.621Z,1017.76
2019-06-27T04:24:58.526Z,1017.74
2019-06-27T04:25:48.486Z,1017.72
2019-06-27T04:27:12.965Z,1017.71
2019-06-27T04:28:17.786Z,1017.73
2019-06-27T04:29:33.671Z,1017.76
2019-06-27T04:30:25.785Z,1017.76
2019-06-27T04:31:23.435Z,1017.80
2019-06-27T04:32:25.081Z,1017.85
2019-06-27T04:33:41.066Z,1017.82
2019-06-27T04:34:33.184Z,1017.82
2019-06-27T04:35:51.418Z,1017.87
2019-06-27T04:36:52.554Z,1017.84
2019-06-27T04:37:48.876Z,1017.85
2019-06-27T04:39:09.156Z,1017.82
2019-06-27T04:40:04.356Z,1017.83
2019-06-27T04:41:17.059Z,1017.83
2019-06-27T04:42:21.774Z,1017.86
2019-06-27T04:43:23.315Z,1017.86
2019-06-27T04:44:40.219Z,1017.88
2019-06-27T04:45:37.458Z,1017.89
2019-06-27T04:46:44.634Z,1017.87
2019-06-27T04:47:53.756Z,1017.83
2019-06-27T04:48:58.584Z,1017.88
2019-06-27T04:49:49.776Z,1017.84
2019-06-27T04:50:55.926Z,1017.84
2019-06-27T04:52:08.838Z,1017.83
2019-06-27T04:53:08.841Z,1017.84
2019-06-27T04:54:26.461Z,1017.84
2019-06-27T04:55:15.525Z,1017.83
2019-06-27T04:56:36.113Z,1017.86
2019-06-27T04:57:42.252Z,1017.87
2019-06-27T04:58:39.286Z,1017.86
2019-06-27T04:59:52.529Z,1017.84
2019-06-27T05:00:58.468Z,1017.83
2019-06-27T05:01:59.276Z,1017.85
2019-06-27T05:03:07.584Z,1017.82
2019-06-27T05:04:08.303Z,1017.83
2019-06-27T05:05:17.321Z,1017.85
2019-06-27T05:06:25.519Z,1017.80
2019-06-27T05:07:30.751Z,1017.83
2019-06-27T05:08:37.925Z,1017.82
2019-06-27T05:09:46.849Z,1017.85
2019-06-27T05:10:51.048Z,1017.82
2019-06-27T05:11:47.267Z,1017.80
2019-06-27T05:12:52.902Z,1017.77
2019-06-27T05:14:05.606Z,1017.81
2019-06-27T05:15:06.245Z,1017.83
2019-06-27T05:16:11.561Z,1017.88
2019-06-27T05:17:16.584Z,1017.90
2019-06-27T05:18:32.268Z,1017.97
2019-06-27T05:19:37.900Z,1017.96
2019-06-27T05:20:29.300Z,1017.99
2019-06-27T05:21:38.832Z,1018.01
2019-06-27T05:22:56.663Z,1017.98
2019-06-27T05:23:49.405Z,1017.99
2019-06-27T05:24:54.931Z,1017.97
2019-06-27T05:26:12.755Z,1017.96
2019-06-27T05:27:02.524Z,1017.98
2019-06-27T05:28:23.942Z,1018.00
2019-06-27T05:29:24.961Z,1018.02
2019-06-27T05:30:36.753Z,1018.06
2019-06-27T05:31:31.631Z,1018.04
2019-06-27T05:32:32.867Z,1018.05
2019-06-27T05:33:48.033Z,1018.04
2019-06-27T05:34:49.470Z,1018.04
2019-06-27T05:35:48.760Z,1018.02
2019-06-27T05:36:58.091Z,1018.03
2019-06-27T05:38:10.380Z,1018.04
2019-06-27T05:39:18.168Z,1018.06
2019-06-27T05:40:16.432Z,1018.11
2019-06-27T05:41:18.182Z,1018.09
2019-06-27T05:42:40.311Z,1018.09
2019-06-27T05:43:41.133Z,1018.04
2019-06-27T05:44:39.818Z,1018.05
2019-06-27T05:45:51.696Z,1018.04
2019-06-27T05:46:52.727Z,1018.07
2019-06-27T05:48:03.899Z,1018.04
2019-06-27T05:48:58.644Z,1018.05
2019-06-27T05:50:21.726Z,1018.05
2019-06-27T05:51:18.157Z,1018.06
2019-06-27T05:52:37.724Z,1018.03
2019-06-27T05:53:38.846Z,1018.08
2019-06-27T05:54:34.556Z,1018.07
2019-06-27T05:55:30.155Z,1018.08
2019-06-27T05:56:52.693Z,1018.03
2019-06-27T05:57:49.012Z,1018.02
2019-06-27T05:58:57.520Z,1018.03
2019-06-27T05:59:54.554Z,1018.03
2019-06-27T06:01:17.603Z,1018.09
2019-06-27T06:02:17.520Z,1018.10
2019-06-27T06:03:20.490Z,1018.10
2019-06-27T06:04:29.604Z,1018.07
2019-06-27T06:05:33.300Z,1018.05
2019-06-27T06:06:31.161Z,1018.09
2019-06-27T06:07:45.905Z,1018.11
2019-06-27T06:08:40.290Z,1018.08
2019-06-27T06:09:36.600Z,1018.08
2019-06-27T06:11:15.727Z,1018.06
2019-06-27T06:11:57.921Z,1018.06
2019-06-27T06:13:07.143Z,1018.09
2019-06-27T06:14:25.168Z,1018.12
2019-06-27T06:15:20.980Z,1018.09
2019-06-27T06:16:41.055Z,1018.14
2019-06-27T06:17:40.956Z,1018.14
2019-06-27T06:19:01.649Z,1018.15
2019-06-27T06:19:50.494Z,1018.20
2019-06-27T06:21:08.424Z,1018.19
2019-06-27T06:21:51.431Z,1018.18
2019-06-27T06:22:49.304Z,1018.15
2019-06-27T06:24:22.165Z,1018.19
2019-06-27T06:25:13.263Z,1018.21
2019-06-27T06:26:19.821Z,1018.22
2019-06-27T06:27:32.736Z,1018.22
2019-06-27T06:28:24.651Z,1018.24
2019-06-27T06:29:33.667Z,1018.19
2019-06-27T06:30:47.005Z,1018.21
2019-06-27T06:31:33.069Z,1018.26
2019-06-27T06:33:04.921Z,1018.29
2019-06-27T06:33:47.930Z,1018.28
2019-06-27T06:35:11.489Z,1018.32
2019-06-27T06:36:05.252Z,1018.33
2019-06-27T06:37:10.496Z,1018.29
2019-06-27T06:38:43.053Z,1018.34
2019-06-27T06:39:25.862Z,1018.30
2019-06-27T06:40:31.799Z,1018.31
2019-06-27T06:41:15.117Z,1018.35
2019-06-27T06:42:32.629Z,1018.37
2019-06-27T06:43:45.445Z,1018.39
2019-06-27T06:44:42.681Z,1018.43
2019-06-27T06:45:45.964Z,1018.43
2019-06-27T06:46:59.696Z,1018.46
2019-06-27T06:47:53.247Z,1018.45
2019-06-27T06:49:10.049Z,1018.49
2019-06-27T06:50:17.118Z,1018.47
2019-06-27T06:51:16.309Z,1018.46
2019-06-27T06:52:26.149Z,1018.50
2019-06-27T06:53:14.220Z,1018.45
2019-06-27T06:54:35.477Z,1018.42
2019-06-27T06:55:30.159Z,1018.41
2019-06-27T06:57:03.250Z,1018.45
2019-06-27T06:58:04.580Z,1018.45
2019-06-27T06:58:58.339Z,1018.50
2019-06-27T07:00:05.326Z,1018.49
2019-06-27T07:01:01.328Z,1018.49
2019-06-27T07:02:07.884Z,1018.49
2019-06-27T07:03:20.486Z,1018.52
2019-06-27T07:04:28.176Z,1018.52
2019-06-27T07:05:35.147Z,1018.52
2019-06-27T07:06:40.066Z,1018.52
2019-06-27T07:08:12.536Z,1018.55
2019-06-27T07:08:36.193Z,1018.54
2019-06-27T07:10:29.444Z,1018.55
2019-06-27T07:11:09.586Z,1018.51
2019-06-27T07:12:23.214Z,1018.55
2019-06-27T07:13:18.713Z,1018.52
2019-06-27T07:14:31.736Z,1018.55
2019-06-27T07:15:27.122Z,1018.54
2019-06-27T07:16:31.429Z,1018.51
2019-06-27T07:17:52.430Z,1018.49
2019-06-27T07:18:32.364Z,1018.49
2019-06-27T07:19:39.335Z,1018.48
2019-06-27T07:20:58.796Z,1018.45
2019-06-27T07:22:10.795Z,1018.43
2019-06-27T07:23:24.521Z,1018.41
2019-06-27T07:24:31.794Z,1018.39
2019-06-27T07:25:12.652Z,1018.41
2019-06-27T07:26:24.945Z,1018.42
2019-06-27T07:27:27.925Z,1018.43
2019-06-27T07:28:31.924Z,1018.45
2019-06-27T07:29:46.265Z,1018.46
2019-06-27T07:30:53.028Z,1018.49
2019-06-27T07:31:56.215Z,1018.53
2019-06-27T07:32:58.925Z,1018.48
2019-06-27T07:34:27.876Z,1018.49
2019-06-27T07:35:08.727Z,1018.50
2019-06-27T07:36:18.471Z,1018.47
2019-06-27T07:37:12.018Z,1018.52
2019-06-27T07:38:27.808Z,1018.53
2019-06-27T07:39:46.029Z,1018.55
2019-06-27T07:40:35.592Z,1018.54
2019-06-27T07:41:26.789Z,1018.53
2019-06-27T07:42:28.638Z,1018.59
2019-06-27T07:43:47.282Z,1018.58
2019-06-27T07:45:05.319Z,1018.62
2019-06-27T07:45:46.076Z,1018.60
2019-06-27T07:46:56.317Z,1018.52
2019-06-27T07:48:17.516Z,1018.59
2019-06-27T07:49:01.448Z,1018.56
2019-06-27T07:50:29.105Z,1018.53
2019-06-27T07:51:14.878Z,1018.54
2019-06-27T07:52:35.776Z,1018.52
2019-06-27T07:53:33.946Z,1018.50
2019-06-27T07:54:53.536Z,1018.47
2019-06-27T07:56:02.935Z,1018.48
2019-06-27T07:56:46.338Z,1018.52
2019-06-27T07:57:54.036Z,1018.51
2019-06-27T07:59:04.793Z,1018.45
2019-06-27T08:00:30.425Z,1018.46
2019-06-27T08:01:02.975Z,1018.48
2019-06-27T08:02:26.726Z,1018.49
2019-06-27T08:03:26.939Z,1018.45
2019-06-27T08:04:33.500Z,1018.45
2019-06-27T08:05:32.179Z,1018.48
2019-06-27T08:06:47.643Z,1018.43
2019-06-27T08:07:47.463Z,1018.46
2019-06-27T08:08:53.297Z,1018.45
2019-06-27T08:09:48.487Z,1018.46
2019-06-27T08:11:09.690Z,1018.49
2019-06-27T08:12:10.929Z,1018.49
2019-06-27T08:13:09.707Z,1018.46
2019-06-27T08:14:21.076Z,1018.49
2019-06-27T08:15:31.836Z,1018.46
2019-06-27T08:16:33.483Z,1018.47
2019-06-27T08:17:33.077Z,1018.48
2019-06-27T08:18:48.243Z,1018.46
2019-06-27T08:19:42.102Z,1018.41
2019-06-27T08:20:56.343Z,1018.42
2019-06-27T08:21:54.199Z,1018.39
2019-06-27T08:23:01.274Z,1018.42
2019-06-27T08:24:08.142Z,1018.40
2019-06-27T08:25:06.517Z,1018.44
2019-06-27T08:26:15.833Z,1018.40
2019-06-27T08:27:26.902Z,1018.38
2019-06-27T08:28:23.946Z,1018.36
2019-06-27T08:29:40.031Z,1018.35
2019-06-27T08:30:41.872Z,1018.35
2019-06-27T08:31:51.103Z,1018.33
2019-06-27T08:32:48.747Z,1018.36
2019-06-27T08:33:47.115Z,1018.31
2019-06-27T08:35:04.631Z,1018.28
2019-06-27T08:36:06.993Z,1018.24
2019-06-27T08:37:07.212Z,1018.29
2019-06-27T08:38:13.562Z,1018.27
2019-06-27T08:39:28.211Z,1018.26
2019-06-27T08:40:27.603Z,1018.29
2019-06-27T08:41:27.206Z,1018.27
2019-06-27T08:42:36.115Z,1018.29
2019-06-27T08:43:39.814Z,1018.26
2019-06-27T08:44:54.155Z,1018.28
2019-06-27T08:45:59.585Z,1018.30
2019-06-27T08:47:04.917Z,1018.26
2019-06-27T08:48:11.117Z,1018.30
2019-06-27T08:49:10.154Z,1018.30
2019-06-27T08:50:23.275Z,1018.28
2019-06-27T08:51:19.020Z,1018.28
2019-06-27T08:52:23.398Z,1018.32
2019-06-27T08:53:34.145Z,1018.30
2019-06-27T08:54:37.434Z,1018.30
2019-06-27T08:55:49.634Z,1018.39
2019-06-27T08:56:47.373Z,1018.37
2019-06-27T08:57:58.646Z,1018.35
2019-06-27T08:58:54.145Z,1018.37
2019-06-27T09:00:05.331Z,1018.37
2019-06-27T09:01:09.934Z,1018.35
2019-06-27T09:02:27.960Z,1018.33
2019-06-27T09:03:21.925Z,1018.29
2019-06-27T09:04:34.015Z,1018.33
2019-06-27T09:05:38.131Z,1018.32
2019-06-27T09:06:41.608Z,1018.33
2019-06-27T09:07:47.247Z,1018.33
2019-06-27T09:08:52.168Z,1018.32
2019-06-27T09:10:07.637Z,1018.30
2019-06-27T09:11:06.312Z,1018.30
2019-06-27T09:12:12.769Z,1018.33
2019-06-27T09:13:26.003Z,1018.32
2019-06-27T09:14:19.753Z,1018.31
2019-06-27T09:15:30.421Z,1018.29
2019-06-27T09:16:28.778Z,1018.27
2019-06-27T09:17:30.797Z,1018.24
2019-06-27T09:18:52.747Z,1018.22
2019-06-27T09:19:45.801Z,1018.28
2019-06-27T09:20:49.286Z,1018.23
2019-06-27T09:22:05.404Z,1018.25
2019-06-27T09:23:00.785Z,1018.26
2019-06-27T09:24:15.471Z,1018.22
2019-06-27T09:25:10.931Z,1018.25
2019-06-27T09:26:11.543Z,1018.24
2019-06-27T09:27:39.500Z,1018.28
2019-06-27T09:28:31.213Z,1018.29
2019-06-27T09:29:39.210Z,1018.30
2019-06-27T09:30:41.801Z,1018.30
2019-06-27T09:31:42.906Z,1018.25
2019-06-27T09:32:50.491Z,1018.27
2019-06-27T09:33:54.186Z,1018.25
2019-06-27T09:35:07.000Z,1018.29
2019-06-27T09:36:13.248Z,1018.28
2019-06-27T09:37:17.145Z,1018.27
2019-06-27T09:38:20.014Z,1018.27
2019-06-27T09:39:36.405Z,1018.27
2019-06-27T09:40:38.564Z,1018.24
2019-06-27T09:41:38.578Z,1018.25
2019-06-27T09:42:41.041Z,1018.24
2019-06-27T09:43:56.402Z,1018.22
2019-06-27T09:45:04.140Z,1018.26
2019-06-27T09:46:04.204Z,1018.24
2019-06-27T09:47:18.134Z,1018.22
2019-06-27T09:48:15.074Z,1018.17
2019-06-27T09:49:17.837Z,1018.19
2019-06-27T09:50:22.043Z,1018.21
2019-06-27T09:51:29.117Z,1018.18
2019-06-27T09:52:37.212Z,1018.22
2019-06-27T09:53:38.959Z,1018.18
2019-06-27T09:54:44.291Z,1018.22
2019-06-27T09:55:50.342Z,1018.18
2019-06-27T09:56:53.216Z,1018.21
2019-06-27T09:58:08.481Z,1018.21
2019-06-27T09:59:00.705Z,1018.25
2019-06-27T10:00:05.316Z,1018.22
2019-06-27T10:01:16.487Z,1018.23
2019-06-27T10:02:40.937Z,1018.21
2019-06-27T10:03:33.705Z,1018.25
2019-06-27T10:04:31.561Z,1018.22
2019-06-27T10:05:31.477Z,1018.20
2019-06-27T10:06:55.235Z,1018.21
2019-06-27T10:08:05.372Z,1018.17
2019-06-27T10:09:06.412Z,1018.14
2019-06-27T10:10:00.783Z,1018.10
2019-06-27T10:11:00.684Z,1018.11
2019-06-27T10:12:05.307Z,1018.12
2019-06-27T10:13:18.617Z,1018.13
2019-06-27T10:14:37.264Z,1018.13
2019-06-27T10:15:32.970Z,1018.15
2019-06-27T10:16:35.329Z,1018.11
2019-06-27T10:17:46.906Z,1018.08
2019-06-27T10:18:44.259Z,1018.10
2019-06-27T10:19:57.467Z,1018.15
2019-06-27T10:21:06.916Z,1018.09
2019-06-27T10:22:14.378Z,1018.12
2019-06-27T10:23:19.506Z,1018.12
2019-06-27T10:24:23.401Z,1018.10
2019-06-27T10:25:24.265Z,1018.14
2019-06-27T10:26:37.035Z,1018.14
2019-06-27T10:27:39.091Z,1018.18
2019-06-27T10:28:45.855Z,1018.18
2019-06-27T10:29:40.843Z,1018.18
2019-06-27T10:30:52.525Z,1018.15
2019-06-27T10:31:53.150Z,1018.07
2019-06-27T10:33:05.647Z,1018.08
2019-06-27T10:34:20.604Z,1018.06
2019-06-27T10:35:16.515Z,1018.08
2019-06-27T10:36:24.102Z,1018.05
2019-06-27T10:37:36.088Z,1018.05
2019-06-27T10:38:28.627Z,1018.07
2019-06-27T10:39:46.869Z,1018.06
2019-06-27T10:40:39.180Z,1018.05
2019-06-27T10:41:46.158Z,1018.05
2019-06-27T10:43:02.442Z,1018.02
2019-06-27T10:44:08.184Z,1018.03
2019-06-27T10:45:27.747Z,1018.03
2019-06-27T10:46:24.072Z,1018.03
2019-06-27T10:47:09.781Z,1018.01
2019-06-27T10:48:30.020Z,1018.04
2019-06-27T10:49:37.300Z,1018.04
2019-06-27T10:51:14.994Z,1018.03
2019-06-27T10:52:28.825Z,1018.07
2019-06-27T10:52:59.029Z,1018.11
2019-06-27T10:54:12.857Z,1018.05
2019-06-27T10:56:04.490Z,1018.00
2019-06-27T10:56:45.227Z,1018.00
2019-06-27T10:59:14.428Z,1018.01
2019-06-27T11:00:07.368Z,1018.00
2019-06-27T11:00:54.483Z,1018.03
2019-06-27T11:02:20.589Z,1017.98
2019-06-27T11:03:28.686Z,1017.96
2019-06-27T11:04:53.378Z,1017.95
2019-06-27T11:05:43.960Z,1017.99
2019-06-27T11:06:56.157Z,1017.97
2019-06-27T11:07:36.194Z,1018.01
2019-06-27T11:09:32.314Z,1017.99
2019-06-27T11:10:32.494Z,1017.96
2019-06-27T11:11:34.481Z,1017.94
2019-06-27T11:12:25.576Z,1017.93
2019-06-27T11:13:30.087Z,1017.91
2019-06-27T11:14:28.560Z,1017.89
2019-06-27T11:15:20.987Z,1017.92
2019-06-27T11:16:48.031Z,1017.94
2019-06-27T11:17:51.108Z,1017.91
2019-06-27T11:18:49.178Z,1017.89
2019-06-27T11:19:53.375Z,1017.91
2019-06-27T11:21:19.495Z,1017.87
2019-06-27T11:22:01.485Z,1017.91
2019-06-27T11:23:12.819Z,1017.89
2019-06-27T11:24:17.876Z,1017.86
2019-06-27T11:25:12.866Z,1017.86
2019-06-27T11:26:11.659Z,1017.84
2019-06-27T11:27:29.057Z,1017.84
2019-06-27T11:28:48.319Z,1017.84
2019-06-27T11:29:46.274Z,1017.80
2019-06-27T11:30:32.479Z,1017.78
2019-06-27T11:32:03.491Z,1017.80
2019-06-27T11:32:52.754Z,1017.81
2019-06-27T11:34:06.693Z,1017.83
2019-06-27T11:35:04.537Z,1017.83
2019-06-27T11:36:07.106Z,1017.76
2019-06-27T11:37:12.229Z,1017.80
2019-06-27T11:38:20.771Z,1017.82
2019-06-27T11:39:32.315Z,1017.71
2019-06-27T11:40:25.362Z,1017.77
2019-06-27T11:41:45.436Z,1017.71
2019-06-27T11:42:38.684Z,1017.76
2019-06-27T11:43:51.591Z,1017.72
2019-06-27T11:44:52.936Z,1017.70
2019-06-27T11:46:03.284Z,1017.71
2019-06-27T11:47:04.623Z,1017.72
2019-06-27T11:48:09.034Z,1017.69
2019-06-27T11:49:23.165Z,1017.65
2019-06-27T11:50:27.374Z,1017.60
2019-06-27T11:51:18.675Z,1017.59
2019-06-27T11:52:29.639Z,1017.60
2019-06-27T11:53:34.701Z,1017.62
2019-06-27T11:54:53.921Z,1017.63
2019-06-27T11:55:41.137Z,1017.57
2019-06-27T11:56:56.090Z,1017.64
2019-06-27T11:57:56.716Z,1017.63
2019-06-27T11:59:06.354Z,1017.60
2019-06-27T12:00:12.495Z,1017.62
2019-06-27T12:01:26.541Z,1017.62
2019-06-27T12:02:18.548Z,1017.62
2019-06-27T12:03:48.330Z,1017.62
2019-06-27T12:04:38.949Z,1017.63
2019-06-27T12:05:33.209Z,1017.59
2019-06-27T12:06:44.789Z,1017.57
2019-06-27T12:07:57.295Z,1017.54
2019-06-27T12:08:53.506Z,1017.56
2019-06-27T12:10:00.738Z,1017.53
2019-06-27T12:11:04.770Z,1017.56
2019-06-27T12:12:10.740Z,1017.54
2019-06-27T12:13:12.888Z,1017.53
2019-06-27T12:14:16.690Z,1017.52
2019-06-27T12:15:32.360Z,1017.48
2019-06-27T12:16:31.141Z,1017.46
2019-06-27T12:17:29.511Z,1017.45
2019-06-27T12:18:43.539Z,1017.46
2019-06-27T12:19:49.587Z,1017.45
2019-06-27T12:21:10.495Z,1017.41
2019-06-27T12:21:57.902Z,1017.43
2019-06-27T12:23:20.541Z,1017.39
2019-06-27T12:24:10.106Z,1017.42
2019-06-27T12:25:15.225Z,1017.44
2019-06-27T12:26:24.453Z,1017.43
2019-06-27T12:27:31.113Z,1017.41
2019-06-27T12:28:35.729Z,1017.43
2019-06-27T12:30:04.708Z,1017.36
2019-06-27T12:30:41.985Z,1017.39
2019-06-27T12:32:18.139Z,1017.39
2019-06-27T12:33:04.845Z,1017.37
2019-06-27T12:34:28.093Z,1017.35
2019-06-27T12:35:16.010Z,1017.39
2019-06-27T12:36:33.732Z,1017.37
2019-06-27T12:37:30.458Z,1017.36
2019-06-27T12:38:27.600Z,1017.36
2019-06-27T12:39:38.771Z,1017.35
2019-06-27T12:40:33.041Z,1017.29
2019-06-27T12:41:36.120Z,1017.29
2019-06-27T12:42:46.365Z,1017.27
2019-06-27T12:43:56.510Z,1017.24
2019-06-27T12:45:01.434Z,1017.24
2019-06-27T12:46:19.357Z,1017.25
2019-06-27T12:47:26.846Z,1017.24
2019-06-27T12:49:10.270Z,1017.25
2019-06-27T12:50:01.434Z,1017.24
2019-06-27T12:51:03.113Z,1017.25
2019-06-27T12:51:59.330Z,1017.23
2019-06-27T12:52:53.402Z,1017.23
2019-06-27T12:53:50.026Z,1017.24
2019-06-27T12:55:04.187Z,1017.27
2019-06-27T12:56:36.632Z,1017.23
2019-06-27T12:57:22.610Z,1017.23
2019-06-27T12:58:20.064Z,1017.18
2019-06-27T12:59:29.176Z,1017.16
2019-06-27T13:00:57.049Z,1017.12
2019-06-27T13:01:38.408Z,1017.07
2019-06-27T13:02:55.523Z,1017.06
2019-06-27T13:03:33.401Z,1017.14
2019-06-27T13:04:43.344Z,1017.11
2019-06-27T13:06:10.895Z,1017.13
2019-06-27T13:07:16.742Z,1017.11
2019-06-27T13:08:14.289Z,1017.12
2019-06-27T13:09:15.131Z,1017.10
2019-06-27T13:10:23.313Z,1017.09
2019-06-27T13:11:29.263Z,1017.07
2019-06-27T13:12:37.661Z,1017.06
2019-06-27T13:13:52.930Z,1017.00
2019-06-27T13:14:47.308Z,1017.02
2019-06-27T13:15:49.359Z,1017.08
2019-06-27T13:16:58.582Z,1017.03